Time;durP1;ratioP1;P1;durP2;ratioP2;P2;SDS_P1;SDS_P2;PMS_P1;PMS_P2;Temp;Humidity;BMP_temperature;BMP_pressure;BME280_temperature;BME280_humidity;BME280_pressure;Samples;Min_cycle;Max_cycle;Signal;HPM_P1;HPM_P2
2022/09/05 00:02:03;;;;;;;8.30;6.40;;;;;;;13.80;73.45;99672.39;88108;1279;22696;-77
2022/09/05 00:05:04;;;;;;;7.10;6.00;;;;;;;13.78;73.61;99674.91;88189;1279;22721;-76
2022/09/05 00:08:20;;;;;;;7.10;6.40;;;;;;;13.77;73.69;99671.62;87681;1283;99021;-75
2022/09/05 00:11:19;;;;;;;7.50;6.80;;;;;;;13.72;73.66;99674.85;87901;1283;25444;-76
2022/09/05 00:14:35;;;;;;;8.20;6.20;;;;;;;13.70;73.64;99674.45;87273;1286;22619;-75
2022/09/05 00:17:24;;;;;;;7.10;6.60;;;;;;;13.70;73.79;99674.63;87629;1285;23340;-75
2022/09/05 00:20:24;;;;;;;6.90;6.40;;;;;;;13.69;73.78;99678.02;87665;1284;22596;-76
2022/09/05 00:23:34;;;;;;;7.10;6.40;;;;;;;13.61;73.57;99677.55;87202;1291;24498;-77
2022/09/05 00:26:29;;;;;;;8.50;6.70;;;;;;;13.52;73.77;99681.86;87250;1289;22721;-75
2022/09/05 00:29:41;;;;;;;8.40;6.20;;;;;;;13.46;73.77;99679.35;87180;1291;22748;-75
2022/09/05 00:32:35;;;;;;;7.00;6.40;;;;;;;13.39;73.78;99674.21;86408;1300;22614;-76
2022/09/05 00:35:43;;;;;;;;;;;;;;;;;;;;;
2022/09/05 00:38:58;;;;;;;10.40;6.60;;;;;;;13.30;73.95;99673.52;86294;1301;22961;-75
2022/09/05 00:41:21;;;;;;;8.90;6.50;;;;;;;13.21;73.95;99674.16;86200;1303;24257;-75
2022/09/05 00:43:44;;;;;;;7.70;6.90;;;;;;;13.14;74.08;99675.71;86337;1300;22701;-75
2022/09/05 00:46:12;;;;;;;10.10;7.30;;;;;;;13.10;74.03;99672.18;86362;1303;22625;-75
2022/09/05 00:48:57;;;;;;;9.50;7.20;;;;;;;13.08;74.10;99670.85;86339;1303;99116;-75
2022/09/05 00:52:01;;;;;;;8.50;7.40;;;;;;;13.06;74.30;99660.76;86535;1300;25493;-77
2022/09/05 00:54:42;;;;;;;10.40;7.30;;;;;;;13.06;74.11;99666.05;86456;1297;99022;-76
2022/09/05 00:57:40;;;;;;;8.30;7.50;;;;;;;13.06;74.20;99663.39;86598;1297;22799;-75
2022/09/05 01:00:33;;;;;;;9.20;7.40;;;;;;;13.05;74.20;99665.19;86567;1297;99257;-76
2022/09/05 01:03:31;;;;;;;9.70;7.30;;;;;;;13.06;74.29;99667.27;86426;1300;23973;-76
2022/09/05 01:06:39;;;;;;;7.80;7.10;;;;;;;12.99;74.36;99657.90;85966;1306;99807;-76
2022/09/05 01:09:55;;;;;;;11.20;7.50;;;;;;;12.99;74.30;99664.80;86437;1297;22693;-76
2022/09/05 01:13:05;;;;;;;8.10;7.30;;;;;;;12.96;74.46;99662.99;86295;1300;99132;-76
2022/09/05 01:15:40;;;;;;;11.10;7.20;;;;;;;12.93;74.39;99661.52;86156;1303;25430;-78
2022/09/05 01:18:29;;;;;;;8.50;7.40;;;;;;;12.90;74.31;99658.85;86106;1300;99271;-77
2022/09/05 01:21:36;;;;;;;8.40;7.60;;;;;;;12.87;74.29;99662.70;86360;1300;23485;-76
2022/09/05 01:24:44;;;;;;;;;;;;;;;;;;;;;
2022/09/05 01:27:45;;;;;;;10.50;7.60;;;;;;;12.83;74.41;99663.79;86222;1303;25981;-76
2022/09/05 01:30:43;;;;;;;9.10;8.30;;;;;;;12.81;74.46;99661.05;86176;1302;99688;-77
2022/09/05 01:33:55;;;;;;;11.30;8.00;;;;;;;12.81;74.34;99665.30;85824;1309;22818;-75
2022/09/05 01:36:48;;;;;;;12.90;8.40;;;;;;;12.81;74.26;99663.84;85770;1309;97990;-75
2022/09/05 01:39:49;;;;;;;10.00;8.20;;;;;;;12.80;74.54;99661.79;85898;1308;24126;-77
2022/09/05 01:43:23;;;;;;;;;;;;;;;;;;;;;
2022/09/05 01:46:41;;;;;;;8.10;7.50;;;;;;;12.83;74.35;99672.75;86568;1297;22809;-76
2022/09/05 01:49:23;;;;;;;9.00;8.10;;;;;;;12.81;74.57;99676.55;86619;1294;98780;-76
2022/09/05 01:52:41;;;;;;;9.40;8.50;;;;;;;12.77;74.64;99677.08;86786;1294;23643;-76
2022/09/05 01:55:29;;;;;;;9.20;8.20;;;;;;;12.73;74.82;99676.21;87276;1287;99763;-76
2022/09/05 01:59:07;;;;;;;9.40;8.50;;;;;;;12.72;74.62;99680.66;87368;1288;24246;-75
2022/09/05 02:02:08;;;;;;;8.60;7.90;;;;;;;12.69;74.69;99678.48;87633;1282;98662;-75
2022/09/05 02:04:49;;;;;;;13.80;8.60;;;;;;;12.71;74.72;99683.89;87993;1281;24210;-76
2022/09/05 02:07:56;;;;;;;9.70;8.40;;;;;;;12.71;74.84;99681.06;87858;1281;98113;-74
2022/09/05 02:11:03;;;;;;;10.00;8.50;;;;;;;12.72;74.72;99681.38;88313;1273;22502;-74
2022/09/05 02:13:43;;;;;;;14.00;8.50;;;;;;;12.72;74.84;99678.86;87883;1279;99635;-75
2022/09/05 02:16:38;;;;;;;13.20;8.00;;;;;;;12.73;74.77;99679.52;88142;1279;22956;-74
2022/09/05 02:19:13;;;;;;;14.10;8.50;;;;;;;12.74;74.71;99680.37;87689;1284;99000;-76
2022/09/05 02:22:12;;;;;;;;;;;;;;;;;;;;;
2022/09/05 02:25:34;;;;;;;;;;;;;;;;;;;;;
2022/09/05 02:28:46;;;;;;;11.50;8.30;;;;;;;12.79;74.76;99685.61;87354;1285;22819;-75
2022/09/05 02:31:27;;;;;;;;;;;;;;;;;;;;;
2022/09/05 02:33:56;;;;;;;16.20;8.80;;;;;;;12.80;75.00;99685.40;87173;1290;23737;-76
2022/09/05 02:37:13;;;;;;;;;;;;;;;;;;;;;
2022/09/05 02:40:35;;;;;;;;;;;;;;;;;;;;;
2022/09/05 02:43:53;;;;;;;9.00;7.50;;;;;;;12.83;74.75;99684.06;87116;1291;99171;-77
2022/09/05 02:46:49;;;;;;;9.20;8.30;;;;;;;12.82;74.80;99686.92;86561;1297;25382;-76
2022/09/05 02:49:59;;;;;;;12.00;7.60;;;;;;;12.79;74.75;99694.45;86268;1300;98697;-75
2022/09/05 02:52:25;;;;;;;12.00;8.50;;;;;;;12.76;74.80;99691.24;86596;1297;22610;-76
2022/09/05 02:55:08;;;;;;;9.40;7.90;;;;;;;12.75;74.67;99688.80;86864;1291;98865;-77
2022/09/05 02:58:24;;;;;;;8.80;8.00;;;;;;;12.71;74.51;99687.92;87040;1291;24293;-76
2022/09/05 03:01:30;;;;;;;12.90;8.00;;;;;;;12.67;74.95;99687.05;87046;1291;98696;-76
2022/09/05 03:04:12;;;;;;;13.60;7.90;;;;;;;12.66;74.91;99688.48;87107;1291;22661;-75
2022/09/05 03:06:40;;;;;;;8.90;8.10;;;;;;;12.66;74.90;99685.69;87023;1291;98829;-76
2022/09/05 03:09:26;;;;;;;13.80;8.20;;;;;;;12.65;74.89;99683.10;87234;1288;24323;-76
2022/09/05 03:12:16;;;;;;;9.10;8.30;;;;;;;12.64;74.89;99685.63;87500;1286;99094;-75
2022/09/05 03:15:43;;;;;;;;;;;;;;;;;;;;;
2022/09/05 03:18:57;;;;;;;9.50;8.20;;;;;;;12.59;75.02;99681.40;86953;1291;98859;-75
2022/09/05 03:22:12;;;;;;;9.10;8.20;;;;;;;12.56;75.00;99679.08;87079;1291;22688;-78
2022/09/05 03:25:29;;;;;;;9.00;8.30;;;;;;;12.52;75.00;99683.31;87484;1288;98875;-75
2022/09/05 03:28:33;;;;;;;9.20;8.30;;;;;;;12.49;75.01;99685.06;87303;1288;24794;-75
2022/09/05 03:31:25;;;;;;;8.80;8.10;;;;;;;12.46;75.13;99687.83;86679;1293;97819;-76
2022/09/05 03:34:29;;;;;;;13.60;8.60;;;;;;;12.44;74.91;99690.00;86813;1294;22635;-75
2022/09/05 03:38:02;;;;;;;14.30;9.80;;;;;;;12.42;74.89;99694.31;86802;1294;99152;-75
2022/09/05 03:41:05;;;;;;;10.90;9.60;;;;;;;12.40;75.03;99693.72;86514;1300;25374;-76
2022/09/05 03:44:13;;;;;;;10.60;7.70;;;;;;;12.38;75.13;99694.67;86366;1300;99329;-75
2022/09/05 03:47:26;;;;;;;8.90;8.00;;;;;;;12.37;75.06;99696.48;87281;1299;22729;-75
2022/09/05 03:50:16;;;;;;;12.40;8.50;;;;;;;12.34;74.98;99691.70;87026;1294;22706;-76
2022/09/05 03:53:36;;;;;;;14.20;9.30;;;;;;;12.30;74.95;99694.14;87055;1294;25569;-75
2022/09/05 03:56:57;;;;;;;9.50;8.50;;;;;;;12.27;75.00;99698.52;87024;1294;22801;-77
2022/09/05 04:00:07;;;;;;;;;;;;;;;;;;;;;
2022/09/05 04:02:52;;;;;;;;;;;;;;;;;;;;;
2022/09/05 04:05:47;;;;;;;9.70;8.80;;;;;;;12.19;75.12;99702.23;87591;1287;22618;-74
2022/09/05 04:08:47;;;;;;;9.90;8.80;;;;;;;12.14;75.12;99702.77;87734;1280;22600;-77
2022/09/05 04:11:40;;;;;;;11.90;8.50;;;;;;;12.11;75.21;99709.79;88142;1279;23988;-74
2022/09/05 04:14:42;;;;;;;11.30;9.10;;;;;;;12.06;75.19;99706.25;88261;1273;22610;-74
2022/09/05 04:17:24;;;;;;;14.20;9.20;;;;;;;12.05;75.38;99711.27;88518;1274;23007;-76
2022/09/05 04:20:18;;;;;;;10.70;9.00;;;;;;;12.02;75.25;99716.66;88264;1276;99230;-75
2022/09/05 04:23:39;;;;;;;;;;;;;;;;;;;;;
2022/09/05 04:27:12;;;;;;;18.20;9.20;;;;;;;11.96;75.36;99728.20;88170;1281;24438;-75
2022/09/05 04:30:46;;;;;;;14.50;9.40;;;;;;;11.93;75.42;99733.58;88166;1279;22708;-76
2022/09/05 04:34:12;;;;;;;15.60;9.20;;;;;;;11.93;75.46;99739.91;88099;1281;22642;-76
2022/09/05 04:37:19;;;;;;;19.60;9.30;;;;;;;11.93;75.51;99748.36;88003;1279;98969;-75
2022/09/05 04:40:27;;;;;;;19.50;9.50;;;;;;;11.94;75.52;99749.59;87755;1284;22602;-75
2022/09/05 04:43:07;;;;;;;21.00;9.70;;;;;;;11.95;75.51;99751.50;87157;1289;98802;-75
2022/09/05 04:45:56;;;;;;;11.80;9.40;;;;;;;11.95;75.63;99750.42;87215;1288;22608;-74
2022/09/05 04:49:16;;;;;;;17.10;9.40;;;;;;;11.95;75.70;99754.66;86712;1295;99399;-74
2022/09/05 04:52:51;;;;;;;17.40;9.80;;;;;;;11.96;75.75;99752.14;86548;1298;24248;-75
2022/09/05 04:56:01;;;;;;;;;;;;;;;;;;;;;
2022/09/05 04:59:12;;;;;;;;;;;;;;;;;;;;;
2022/09/05 05:01:55;;;;;;;18.80;8.80;;;;;;;12.03;75.68;99768.40;85333;1318;98161;-75
2022/09/05 05:04:45;;;;;;;16.80;9.90;;;;;;;12.07;75.74;99773.02;85660;1314;24457;-75
2022/09/05 05:07:56;;;;;;;;;;;;;;;;;;;;;
2022/09/05 05:11:29;;;;;;;13.80;9.40;;;;;;;12.17;76.00;99782.13;86311;1314;22701;-75
2022/09/05 05:14:12;;;;;;;23.20;9.80;;;;;;;12.23;75.63;99783.09;87075;1315;97655;-75
2022/09/05 05:17:01;;;;;;;39.80;10.30;;;;;;;12.28;75.97;99786.05;86764;1311;22685;-75
2022/09/05 05:20:11;;;;;;;28.10;10.30;;;;;;;12.33;75.80;99793.25;86172;1308;98821;-74
2022/09/05 05:23:00;;;;;;;46.60;11.20;;;;;;;12.39;75.78;99794.55;86322;1308;22066;-79
2022/09/05 05:25:31;;;;;;;30.60;11.30;;;;;;;12.46;75.85;99795.52;86284;1296;99130;-75
2022/09/05 05:28:21;;;;;;;39.00;10.80;;;;;;;12.52;75.85;99791.05;87173;1288;22668;-76
2022/09/05 05:31:24;;;;;;;42.80;11.00;;;;;;;12.59;75.94;99791.77;87839;1287;99090;-74
2022/09/05 05:33:47;;;;;;;35.70;10.60;;;;;;;12.68;75.72;99791.55;87251;1291;22669;-75
2022/09/05 05:36:50;;;;;;;32.90;11.20;;;;;;;12.75;75.84;99792.84;87525;1285;99579;-75
2022/09/05 05:39:50;;;;;;;33.80;10.10;;;;;;;12.84;75.89;99794.77;87912;1278;23557;-73
2022/09/05 05:42:22;;;;;;;65.60;11.20;;;;;;;12.93;75.97;99796.47;88161;1277;99426;-73
2022/09/05 05:44:49;;;;;;;44.90;11.30;;;;;;;12.99;75.83;99796.89;88209;1278;22596;-73
2022/09/05 05:47:22;;;;;;;40.90;10.80;;;;;;;13.09;75.87;99798.23;88392;1277;22585;-73
2022/09/05 05:50:27;;;;;;;30.00;11.00;;;;;;;13.18;75.96;99797.46;88118;1280;98996;-72
2022/09/05 05:53:24;;;;;;;54.70;11.70;;;;;;;13.27;75.90;99799.52;88275;1277;23957;-73
2022/09/05 05:56:17;;;;;;;54.40;12.30;;;;;;;13.33;75.67;99799.27;88260;1277;99645;-73
2022/09/05 05:59:06;;;;;;;55.70;12.50;;;;;;;13.41;75.61;99799.99;88217;1278;22797;-73
2022/09/05 06:02:39;;;;;;;39.60;11.80;;;;;;;13.50;75.69;99802.77;88115;1277;99384;-74
2022/09/05 06:05:59;;;;;;;;;;;;;;;;;;;;;
2022/09/05 06:08:59;;;;;;;;;;;;;;;;;;;;;
2022/09/05 06:12:05;;;;;;;27.40;11.70;;;;;;;13.74;75.51;99812.38;87709;1283;22690;-74
2022/09/05 06:14:42;;;;;;;17.00;11.70;;;;;;;13.80;75.58;99809.77;87746;1284;23705;-73
2022/09/05 06:18:13;;;;;;;13.90;10.90;;;;;;;13.88;75.44;99814.02;87714;1287;22627;-75
2022/09/05 06:21:22;;;;;;;15.00;11.50;;;;;;;14.01;75.43;99815.30;87764;1282;26241;-72
2022/09/05 06:24:08;;;;;;;22.30;10.90;;;;;;;14.14;75.25;99812.58;87676;1285;22615;-72
2022/09/05 06:27:11;;;;;;;24.60;11.40;;;;;;;14.23;75.32;99816.35;88036;1286;22862;-73
2022/09/05 06:30:28;;;;;;;21.60;10.20;;;;;;;14.30;75.00;99820.98;87115;1290;22668;-72
2022/09/05 06:33:53;;;;;;;;;;;;;;;;;;;;;
2022/09/05 06:37:15;;;;;;;30.70;10.60;;;;;;;14.46;74.88;99826.30;87116;1290;100022;-71
2022/09/05 06:40:40;;;;;;;19.90;10.40;;;;;;;14.57;74.96;99830.25;87239;1288;23467;-72
2022/09/05 06:46:56;;;;;;;13.40;10.60;;;;;;;14.75;74.63;99831.09;87900;1283;22902;-71
2022/09/05 06:50:19;;;;;;;21.50;10.30;;;;;;;14.85;74.72;99829.73;87631;1287;99227;-73
2022/09/05 06:53:09;;;;;;;26.30;10.70;;;;;;;14.97;74.84;99832.79;87136;1292;22753;-72
2022/09/05 06:56:09;;;;;;;24.60;10.30;;;;;;;15.06;74.53;99836.05;86955;1292;99490;-74
2022/09/05 06:59:32;;;;;;;;;;;;;;;;;;;;;
2022/09/05 07:02:44;;;;;;;16.40;9.10;;;;;;;15.30;74.42;99843.27;87012;1294;99245;-71
2022/09/05 07:05:49;;;;;;;21.20;9.00;;;;;;;15.43;74.37;99841.66;87075;1294;23332;-72
2022/09/05 07:09:05;;;;;;;23.60;9.10;;;;;;;15.58;74.31;99846.91;87624;1287;23089;-72
2022/09/05 07:12:17;;;;;;;21.20;9.30;;;;;;;15.69;74.15;99844.87;83032;1297;5354102;-72
2022/09/05 07:15:34;;;;;;;20.00;7.90;;;;;;;15.74;73.94;99842.98;86713;1301;26590;-73
2022/09/05 07:18:32;;;;;;;;;;;;;;;;;;;;;
2022/09/05 07:21:07;;;;;;;13.50;8.00;;;;;;;15.92;73.71;99843.63;85981;1306;25778;-72
2022/09/05 07:24:00;;;;;;;19.60;8.20;;;;;;;16.01;73.81;99842.74;86121;1306;22831;-73
2022/09/05 07:26:32;;;;;;;;;;;;;;;16.14;73.69;99842.39;86287;1300;23407;-73
2022/09/05 07:29:15;;;;;;;19.10;8.10;;;;;;;16.19;73.48;99841.71;86532;1299;23112;-73
2022/09/05 07:31:47;;;;;;;23.60;9.70;;;;;;;16.26;73.44;99844.00;86560;1296;97974;-72
2022/09/05 07:34:15;;;;;;;16.00;8.30;;;;;;;16.32;73.38;99842.73;86574;1296;23599;-72
2022/09/05 07:37:06;;;;;;;14.40;8.20;;;;;;;16.41;73.53;99840.96;86478;1299;98878;-72
2022/09/05 07:40:11;;;;;;;15.90;7.60;;;;;;;16.62;73.60;99841.04;86576;1296;22665;-73
2022/09/05 07:42:43;;;;;;;24.60;8.80;;;;;;;16.76;73.14;99839.48;86493;1296;99088;-72
2022/09/05 07:45:20;;;;;;;16.00;8.30;;;;;;;16.82;73.13;99838.77;86553;1297;22635;-72
2022/09/05 07:48:26;;;;;;;21.10;7.80;;;;;;;16.91;73.06;99836.83;86788;1291;22611;-72
2022/09/05 07:51:27;;;;;;;10.60;7.30;;;;;;;16.96;72.65;99839.53;87283;1287;22653;-71
2022/09/05 07:53:55;;;;;;;16.60;8.10;;;;;;;17.08;72.74;99841.48;88105;1279;22632;-73
2022/09/05 07:56:54;;;;;;;12.20;7.40;;;;;;;17.14;72.41;99846.41;87978;1281;22781;-72
2022/09/05 07:59:27;;;;;;;19.80;8.40;;;;;;;17.23;72.61;99847.16;88124;1278;22732;-72
2022/09/05 08:01:54;;;;;;;17.90;8.40;;;;;;;17.33;72.29;99846.73;88001;1279;99002;-72
2022/09/05 08:05:00;;;;;;;16.20;8.20;;;;;;;17.35;72.11;99845.32;88147;1278;22926;-71
2022/09/05 08:07:36;;;;;;;28.10;8.50;;;;;;;17.46;72.33;99843.94;88078;1278;98837;-73
2022/09/05 08:10:31;;;;;;;;;;;;;;;;;;;;;
2022/09/05 08:13:49;;;;;;;24.60;7.30;;;;;;;17.52;71.68;99838.91;88125;1277;97859;-72
2022/09/05 08:16:30;;;;;;;23.60;8.10;;;;;;;17.65;71.97;99838.84;87566;1287;22720;-71
2022/09/05 08:19:37;;;;;;;33.40;7.30;;;;;;;17.75;71.57;99839.08;87411;1287;99134;-72
2022/09/05 08:22:32;;;;;;;23.80;6.70;;;;;;;17.85;71.39;99839.27;87535;1284;23023;-73
2022/09/05 08:25:31;;;;;;;9.80;6.60;;;;;;;18.05;71.12;99838.80;87461;1285;99224;-72
2022/09/05 08:28:18;;;;;;;20.30;6.70;;;;;;;18.20;71.00;99842.40;87758;1281;22652;-72
2022/09/05 08:30:46;;;;;;;21.50;5.60;;;;;;;18.31;70.50;99835.30;88026;1279;99443;-72
2022/09/05 08:33:27;;;;;;;12.50;5.80;;;;;;;18.47;70.67;99834.77;88159;1281;26159;-72
2022/09/05 08:35:53;;;;;;;15.20;5.80;;;;;;;18.64;70.20;99829.16;87964;1281;25290;-75
2022/09/05 08:38:17;;;;;;;27.20;6.20;;;;;;;18.67;69.58;99826.45;88339;1281;25335;-76
2022/09/05 08:40:59;;;;;;;18.10;6.10;;;;;;;18.66;69.24;99829.42;88066;1280;24269;-76
2022/09/05 08:43:51;;;;;;;13.40;5.40;;;;;;;18.67;69.46;99822.57;88156;1280;98823;-76
2022/09/05 08:46:45;;;;;;;10.00;5.60;;;;;;;18.79;69.23;99824.42;87769;1287;24243;-75
2022/09/05 08:49:13;;;;;;;10.00;5.50;;;;;;;18.93;69.15;99821.19;86983;1291;99645;-77
2022/09/05 08:52:13;;;;;;;8.20;5.60;;;;;;;19.01;69.00;99817.96;87347;1285;22613;-78
2022/09/05 08:55:12;;;;;;;8.10;4.80;;;;;;;19.15;68.79;99817.84;86985;1294;98831;-79
2022/09/05 08:57:58;;;;;;;13.90;4.90;;;;;;;19.22;68.39;99810.20;87138;1293;24291;-76
2022/09/05 09:00:20;;;;;;;21.50;5.30;;;;;;;19.25;68.22;99813.41;86947;1294;97906;-75
2022/09/05 09:03:00;;;;;;;13.80;5.70;;;;;;;19.31;68.28;99807.67;87080;1291;22697;-74
2022/09/05 09:06:14;;;;;;;8.20;5.40;;;;;;;19.44;68.63;99808.52;87079;1290;23132;-74
2022/09/05 09:09:12;;;;;;;11.40;5.20;;;;;;;19.64;68.05;99809.92;87009;1291;22785;-74
2022/09/05 09:12:17;;;;;;;;;;;;;;;;;;;;;
2022/09/05 09:14:59;;;;;;;11.20;4.80;;;;;;;19.87;67.86;99803.24;87033;1294;22758;-76
2022/09/05 09:17:40;;;;;;;5.40;4.20;;;;;;;19.96;67.77;99802.48;86961;1294;22686;-76
2022/09/05 09:20:17;;;;;;;6.80;4.80;;;;;;;20.03;66.58;99808.20;86948;1291;98868;-76
2022/09/05 09:23:12;;;;;;;12.50;4.50;;;;;;;20.02;66.54;99804.34;87020;1291;22753;-76
2022/09/05 09:25:53;;;;;;;5.80;4.50;;;;;;;20.03;65.80;99802.48;87219;1285;98797;-74
2022/09/05 09:29:08;;;;;;;7.00;4.90;;;;;;;20.02;66.08;99803.94;87869;1282;22712;-75
2022/09/05 09:32:32;;;;;;;17.80;4.90;;;;;;;20.02;65.99;99798.42;88305;1274;98629;-75
2022/09/05 09:35:36;;;;;;;11.70;5.60;;;;;;;20.13;65.91;99800.13;88419;1273;25499;-75
2022/09/05 09:38:33;;;;;;;19.60;5.50;;;;;;;20.27;65.61;99790.00;88577;1273;99332;-74
2022/09/05 09:41:39;;;;;;;5.20;4.60;;;;;;;20.45;65.46;99790.02;88421;1273;22674;-74
2022/09/05 09:44:10;;;;;;;9.80;5.00;;;;;;;20.51;65.06;99782.45;88298;1274;98590;-75
2022/09/05 09:46:45;;;;;;;19.40;5.30;;;;;;;20.56;65.32;99779.33;88413;1273;22732;-74
2022/09/05 09:49:51;;;;;;;11.70;4.60;;;;;;;20.71;64.85;99775.25;88177;1274;98744;-77
2022/09/05 09:53:12;;;;;;;10.20;4.40;;;;;;;20.79;64.44;99777.96;88462;1273;25274;-75
2022/09/05 09:56:07;;;;;;;6.50;4.00;;;;;;;20.94;64.40;99781.46;87949;1279;98849;-74
2022/09/05 09:59:24;;;;;;;6.30;4.40;;;;;;;21.08;64.31;99778.24;88021;1279;25518;-74
2022/09/05 10:02:07;;;;;;;12.40;4.30;;;;;;;21.30;64.14;99774.52;87827;1281;98901;-75
2022/09/05 10:05:01;;;;;;;5.30;4.20;;;;;;;21.42;63.71;99770.03;88179;1277;22653;-74
2022/09/05 10:08:00;;;;;;;10.00;4.00;;;;;;;21.37;63.10;99772.56;87697;1284;97798;-75
2022/09/05 10:10:57;;;;;;;14.70;4.80;;;;;;;21.17;63.03;99771.07;87704;1284;23107;-74
2022/09/05 10:13:42;;;;;;;5.20;4.50;;;;;;;21.27;63.56;99770.67;86923;1294;25285;-75
2022/09/05 10:17:02;;;;;;;;;;;;;;;;;;;;;
2022/09/05 10:20:05;;;;;;;11.80;3.60;;;;;;;21.06;61.95;99768.77;86478;1297;22671;-76
2022/09/05 10:22:46;;;;;;;6.60;3.70;;;;;;;20.77;62.63;99766.73;86086;1303;23011;-75
2022/09/05 10:26:00;;;;;;;16.10;3.90;;;;;;;20.90;62.59;99765.16;86146;1303;22703;-75
2022/09/05 10:28:32;;;;;;;5.90;3.20;;;;;;;21.12;62.51;99765.75;86075;1303;23433;-74
2022/09/05 10:31:12;;;;;;;4.10;3.80;;;;;;;21.19;62.14;99766.83;86321;1300;24460;-75
2022/09/05 10:34:04;;;;;;;4.90;4.20;;;;;;;21.08;61.75;99765.34;86436;1300;98918;-76
2022/09/05 10:36:32;;;;;;;5.30;3.90;;;;;;;20.91;61.59;99763.48;86499;1300;22633;-74
2022/09/05 10:39:18;;;;;;;5.70;3.10;;;;;;;20.86;61.95;99759.94;86399;1300;98934;-76
2022/09/05 10:41:48;;;;;;;4.20;3.50;;;;;;;20.91;61.13;99759.69;86359;1300;22789;-75
2022/09/05 10:44:10;;;;;;;10.70;3.40;;;;;;;20.97;61.38;99759.27;86524;1294;25427;-75
2022/09/05 10:47:47;;;;;;;4.30;3.90;;;;;;;21.14;61.66;99752.23;86579;1296;24439;-76
2022/09/05 10:50:42;;;;;;;5.70;2.70;;;;;;;21.31;59.91;99748.73;86833;1291;26922;-76
2022/09/05 10:53:41;;;;;;;6.90;3.30;;;;;;;21.08;60.24;99751.05;87447;1283;24656;-75
2022/09/05 10:56:26;;;;;;;11.20;4.10;;;;;;;21.29;60.43;99750.29;88156;1281;22627;-74
2022/09/05 10:59:24;;;;;;;5.30;3.80;;;;;;;21.52;60.64;99751.17;88343;1275;23591;-75
2022/09/05 11:02:02;;;;;;;32.60;14.40;;;;;;;21.67;60.01;99747.25;88449;1278;22811;-76
2022/09/05 11:04:51;;;;;;;6.80;4.20;;;;;;;21.78;59.97;99745.06;88427;1280;97866;-77
2022/09/05 11:07:18;;;;;;;13.00;4.10;;;;;;;21.92;60.10;99747.70;88023;1285;25507;-76
2022/09/05 11:09:47;;;;;;;9.00;4.10;;;;;;;21.97;59.30;99741.58;87847;1285;97749;-74
2022/09/05 11:12:27;;;;;;;30.10;4.60;;;;;;;21.97;58.54;99739.95;87907;1286;22615;-73
2022/09/05 11:14:55;;;;;;;9.10;3.80;;;;;;;21.95;58.82;99741.23;87716;1285;98043;-75
2022/09/05 11:17:53;;;;;;;9.20;3.90;;;;;;;21.91;58.21;99740.80;87784;1286;25401;-76
2022/09/05 11:20:40;;;;;;;;;;;;;;;;;;;;;
2022/09/05 11:23:28;;;;;;;5.80;3.80;;;;;;;21.31;57.93;99739.59;87813;1285;22706;-75
2022/09/05 11:26:17;;;;;;;18.20;4.50;;;;;;;21.00;58.20;99737.56;87794;1285;22646;-75
2022/09/05 11:28:52;;;;;;;12.90;4.20;;;;;;;20.86;57.86;99735.13;87907;1286;22602;-75
2022/09/05 11:31:41;;;;;;;5.30;3.50;;;;;;;20.92;58.09;99724.66;87922;1285;22653;-75
2022/09/05 11:34:22;;;;;;;11.90;3.70;;;;;;;21.08;58.01;99724.08;87671;1285;99306;-74
2022/09/05 11:37:01;;;;;;;10.80;3.70;;;;;;;21.20;57.80;99727.96;87800;1284;25303;-75
2022/09/05 11:40:00;;;;;;;6.40;3.40;;;;;;;21.29;57.58;99722.23;88342;1279;98998;-74
2022/09/05 11:42:34;;;;;;;8.80;3.40;;;;;;;21.36;57.53;99719.52;88361;1280;23259;-76
2022/09/05 11:45:26;;;;;;;10.00;3.10;;;;;;;21.39;57.16;99714.06;88589;1274;97581;-74
2022/09/05 11:48:11;;;;;;;7.30;3.30;;;;;;;21.31;56.89;99718.16;88637;1278;23210;-79
2022/09/05 11:50:56;;;;;;;5.00;3.50;;;;;;;21.21;56.87;99716.25;88162;1277;99933;-76
2022/09/05 11:53:35;;;;;;;3.90;3.20;;;;;;;21.15;56.86;99710.65;87816;1285;22732;-76
2022/09/05 11:56:21;;;;;;;6.40;3.10;;;;;;;21.09;56.93;99711.69;87798;1285;22577;-76
2022/09/05 11:59:11;;;;;;;8.10;3.20;;;;;;;21.01;57.11;99710.35;87804;1285;22684;-75
2022/09/05 12:01:46;;;;;;;7.30;3.30;;;;;;;20.92;56.97;99708.74;87715;1285;22666;-76
2022/09/05 12:04:38;;;;;;;7.50;3.30;;;;;;;20.87;56.94;99705.08;87534;1285;98651;-76
2022/09/05 12:07:47;;;;;;;5.10;3.50;;;;;;;20.84;56.31;99704.75;87682;1284;22595;-75
2022/09/05 12:10:58;;;;;;;4.50;3.00;;;;;;;20.78;55.91;99705.04;87682;1284;97358;-76
2022/09/05 12:13:37;;;;;;;18.00;3.90;;;;;;;20.76;56.49;99699.45;87514;1287;25463;-75
2022/09/05 12:16:17;;;;;;;11.00;3.30;;;;;;;20.77;56.32;99697.28;87722;1285;98852;-75
2022/09/05 12:18:48;;;;;;;3.90;3.20;;;;;;;20.81;56.07;99703.73;87563;1284;24138;-74
2022/09/05 12:21:24;;;;;;;;;;;;;;;20.87;55.94;99701.75;87690;1285;97622;-76
2022/09/05 12:24:09;;;;;;;15.20;3.40;;;;;;;20.82;55.71;99699.15;87889;1281;24457;-75
2022/09/05 12:26:55;;;;;;;7.20;3.20;;;;;;;20.85;55.93;99696.56;88078;1279;23738;-75
2022/09/05 12:29:19;;;;;;;31.80;4.40;;;;;;;20.90;55.80;99692.25;87845;1282;22604;-75
2022/09/05 12:32:00;;;;;;;5.50;3.00;;;;;;;20.96;55.81;99697.34;88329;1277;25316;-80
2022/09/05 12:34:54;;;;;;;7.10;3.10;;;;;;;21.01;54.84;99697.30;88506;1273;99703;-75
2022/09/05 12:37:22;;;;;;;9.00;3.50;;;;;;;21.00;54.50;99690.77;88207;1279;22664;-76
2022/09/05 12:40:09;;;;;;;3.30;2.90;;;;;;;20.94;54.68;99688.21;88095;1279;98675;-76
2022/09/05 12:42:39;;;;;;;6.00;3.50;;;;;;;20.97;54.80;99685.70;88150;1281;22860;-77
2022/09/05 12:45:19;;;;;;;9.30;3.40;;;;;;;21.00;54.95;99686.48;88255;1279;98684;-77
2022/09/05 12:48:33;;;;;;;18.40;3.40;;;;;;;21.05;54.92;99680.71;88421;1279;22696;-77
2022/09/05 12:51:39;;;;;;;35.20;4.10;;;;;;;21.15;54.64;99684.96;88724;1279;97898;-78
2022/09/05 12:55:02;;;;;;;17.00;3.70;;;;;;;21.17;54.03;99680.30;89746;1279;22556;-78
2022/09/05 12:57:43;;;;;;;3.20;2.60;;;;;;;21.09;53.79;99673.09;88547;1294;98986;-80
2022/09/05 13:00:22;;;;;;;16.60;3.00;;;;;;;21.06;53.60;99677.29;87718;1293;24404;-78
2022/09/05 13:03:06;;;;;;;5.40;3.10;;;;;;;21.00;53.79;99679.30;87056;1294;99218;-79
2022/09/05 13:06:52;;;;;;;3.80;3.40;;;;;;;20.98;53.79;99676.48;87212;1293;24282;-79
2022/09/05 13:10:16;;;;;;;3.30;2.90;;;;;;;20.99;53.84;99673.39;87183;1294;98774;-78
2022/09/05 13:12:57;;;;;;;6.00;2.80;;;;;;;20.98;53.53;99665.06;87357;1290;22837;-78
2022/09/05 13:15:47;;;;;;;26.30;3.30;;;;;;;21.00;53.72;99662.05;87762;1287;98739;-77
2022/09/05 13:18:36;;;;;;;3.40;3.10;;;;;;;20.98;53.43;99646.11;87293;1294;23501;-77
2022/09/05 13:21:44;;;;;;;;;;;;;;;;;;;;;
2022/09/05 13:24:30;;;;;;;5.60;2.70;;;;;;;21.04;53.32;99659.34;86632;1299;22614;-77
2022/09/05 13:27:12;;;;;;;11.60;4.30;;;;;;;21.04;53.56;99657.96;86516;1297;99419;-76
2022/09/05 13:30:09;;;;;;;6.90;3.10;;;;;;;21.03;53.31;99655.52;86564;1300;23318;-78
2022/09/05 13:33:09;;;;;;;6.10;3.10;;;;;;;21.02;53.36;99659.36;86814;1300;26484;-77
2022/09/05 13:35:46;;;;;;;;;;;;;;;;;;;;;
2022/09/05 13:38:23;;;;;;;5.70;3.20;;;;;;;20.97;53.01;99654.77;87210;1290;22977;-74
2022/09/05 13:40:59;;;;;;;;;;;;;;;;;;;;;
2022/09/05 13:43:28;;;;;;;4.40;3.00;;;;;;;20.95;52.94;99653.09;87181;1290;23599;-75
2022/09/05 13:46:11;;;;;;;19.70;3.90;;;;;;;20.97;53.10;99649.40;86879;1291;98677;-75
2022/09/05 13:48:59;;;;;;;4.20;3.20;;;;;;;21.01;53.01;99645.86;87147;1291;23096;-75
2022/09/05 13:51:59;;;;;;;9.70;2.90;;;;;;;21.03;52.89;99646.21;87089;1291;98712;-74
2022/09/05 13:54:52;;;;;;;4.90;2.80;;;;;;;21.11;52.33;99647.20;86767;1300;25274;-75
2022/09/05 13:57:35;;;;;;;5.30;3.00;;;;;;;21.16;52.04;99649.89;86952;1294;98697;-76
2022/09/05 14:00:30;;;;;;;11.00;3.20;;;;;;;21.12;51.96;99647.86;87669;1285;22685;-75
2022/09/05 14:03:30;;;;;;;5.20;4.10;;;;;;;21.12;52.12;99650.70;87419;1284;100045;-74
2022/09/05 14:06:22;;;;;;;8.80;2.70;;;;;;;21.09;51.89;99648.96;87672;1285;22679;-76
2022/09/05 14:09:25;;;;;;;;;;;;;;;;;;;;;
2022/09/05 14:12:41;;;;;;;14.40;3.20;;;;;;;21.03;52.04;99644.04;87394;1292;22710;-75
2022/09/05 14:16:11;;;;;;;10.60;3.70;;;;;;;20.99;51.55;99641.89;86801;1294;99187;-74
2022/09/05 14:21:39;;;;;;;12.40;3.10;;;;;;;21.02;51.94;99643.44;86015;1305;99344;-74
2022/09/05 14:24:39;;;;;;;6.40;2.70;;;;;;;21.03;51.86;99642.80;86041;1305;28662;-76
2022/09/05 14:27:21;;;;;;;4.30;3.50;;;;;;;21.02;51.58;99640.40;86030;1305;98920;-74